sensor_id;sensor_type;location;lat;lon;timestamp;pressure;altitude;pressure_sealevel;temperature;humidity
40788;BME280;26497;52.494;7.546;2022-11-03T00:00:58;100920.88;;;14.89;52.46
40788;BME280;26497;52.494;7.546;2022-11-03T00:03:26;100914.22;;;14.54;53.48
40788;BME280;26497;52.494;7.546;2022-11-03T00:05:53;100922.75;;;14.81;53.02
40788;BME280;26497;52.494;7.546;2022-11-03T00:08:34;100893.78;;;14.60;53.46
40788;BME280;26497;52.494;7.546;2022-11-03T00:11:10;100896.13;;;14.87;52.65
40788;BME280;26497;52.494;7.546;2022-11-03T00:13:40;100903.09;;;14.93;52.55
40788;BME280;26497;52.494;7.546;2022-11-03T00:16:10;100893.69;;;14.68;53.06
40788;BME280;26497;52.494;7.546;2022-11-03T00:18:37;100891.75;;;14.83;52.88
40788;BME280;26497;52.494;7.546;2022-11-03T00:21:06;100882.22;;;14.66;53.23
40788;BME280;26497;52.494;7.546;2022-11-03T00:23:37;100892.66;;;14.80;53.10
40788;BME280;26497;52.494;7.546;2022-11-03T00:26:07;100887.59;;;14.60;53.70
40788;BME280;26497;52.494;7.546;2022-11-03T00:28:35;100887.72;;;14.52;53.76
40788;BME280;26497;52.494;7.546;2022-11-03T00:31:08;100896.06;;;14.88;52.95
40788;BME280;26497;52.494;7.546;2022-11-03T00:33:37;100892.00;;;14.61;53.50
40788;BME280;26497;52.494;7.546;2022-11-03T00:36:06;100889.13;;;14.80;53.00
40788;BME280;26497;52.494;7.546;2022-11-03T00:38:34;100896.53;;;14.53;53.65
40788;BME280;26497;52.494;7.546;2022-11-03T00:41:04;100877.75;;;14.67;53.29
40788;BME280;26497;52.494;7.546;2022-11-03T00:43:33;100881.16;;;14.80;52.91
40788;BME280;26497;52.494;7.546;2022-11-03T00:46:01;100885.38;;;14.96;52.37
40788;BME280;26497;52.494;7.546;2022-11-03T00:48:31;100885.41;;;14.93;52.61
40788;BME280;26497;52.494;7.546;2022-11-03T00:51:08;100877.66;;;14.78;53.11
40788;BME280;26497;52.494;7.546;2022-11-03T00:53:37;100884.06;;;14.61;53.63
40788;BME280;26497;52.494;7.546;2022-11-03T00:56:06;100885.84;;;14.59;53.76
40788;BME280;26497;52.494;7.546;2022-11-03T00:58:35;100885.72;;;14.67;53.84
40788;BME280;26497;52.494;7.546;2022-11-03T01:01:11;100884.06;;;14.59;53.78
40788;BME280;26497;52.494;7.546;2022-11-03T01:03:41;100875.94;;;14.73;53.27
40788;BME280;26497;52.494;7.546;2022-11-03T01:06:30;100870.84;;;14.56;54.19
40788;BME280;26497;52.494;7.546;2022-11-03T01:09:15;100878.47;;;14.83;53.27
40788;BME280;26497;52.494;7.546;2022-11-03T01:11:43;100881.19;;;14.78;53.43
40788;BME280;26497;52.494;7.546;2022-11-03T01:14:16;100869.69;;;14.78;53.60
40788;BME280;26497;52.494;7.546;2022-11-03T01:16:43;100869.84;;;14.65;53.99
40788;BME280;26497;52.494;7.546;2022-11-03T01:19:11;100866.28;;;14.66;53.90
40788;BME280;26497;52.494;7.546;2022-11-03T01:21:38;100857.69;;;14.49;54.47
40788;BME280;26497;52.494;7.546;2022-11-03T01:24:05;100854.69;;;14.75;53.73
40788;BME280;26497;52.494;7.546;2022-11-03T01:26:32;100854.84;;;14.59;54.26
40788;BME280;26497;52.494;7.546;2022-11-03T01:29:00;100854.63;;;14.78;53.69
40788;BME280;26497;52.494;7.546;2022-11-03T01:31:27;100844.13;;;14.69;53.99
40788;BME280;26497;52.494;7.546;2022-11-03T01:33:55;100839.19;;;14.44;54.71
40788;BME280;26497;52.494;7.546;2022-11-03T01:36:24;100819.44;;;14.62;53.99
40788;BME280;26497;52.494;7.546;2022-11-03T01:38:53;100813.53;;;14.43;54.73
40788;BME280;26497;52.494;7.546;2022-11-03T01:41:22;100812.41;;;14.59;54.47
40788;BME280;26497;52.494;7.546;2022-11-03T01:44:44;100816.06;;;14.51;54.82
40788;BME280;26497;52.494;7.546;2022-11-03T01:47:19;100807.47;;;14.33;55.19
40788;BME280;26497;52.494;7.546;2022-11-03T01:49:51;100807.34;;;14.42;54.97
40788;BME280;26497;52.494;7.546;2022-11-03T01:52:26;100810.63;;;14.60;54.55
40788;BME280;26497;52.494;7.546;2022-11-03T01:54:58;100802.88;;;14.46;54.98
40788;BME280;26497;52.494;7.546;2022-11-03T01:57:33;100796.78;;;14.39;55.25
40788;BME280;26497;52.494;7.546;2022-11-03T02:00:01;100794.41;;;14.19;55.99
40788;BME280;26497;52.494;7.546;2022-11-03T02:02:29;100794.38;;;14.21;55.88
40788;BME280;26497;52.494;7.546;2022-11-03T02:04:58;100786.38;;;14.25;55.82
40788;BME280;26497;52.494;7.546;2022-11-03T02:07:34;100783.50;;;14.39;55.43
40788;BME280;26497;52.494;7.546;2022-11-03T02:10:03;100775.81;;;14.22;55.68
40788;BME280;26497;52.494;7.546;2022-11-03T02:12:31;100779.22;;;14.29;55.72
40788;BME280;26497;52.494;7.546;2022-11-03T02:15:02;100766.72;;;14.39;55.29
40788;BME280;26497;52.494;7.546;2022-11-03T02:17:32;100776.63;;;14.26;55.60
40788;BME280;26497;52.494;7.546;2022-11-03T02:20:04;100766.66;;;14.43;55.19
40788;BME280;26497;52.494;7.546;2022-11-03T02:22:53;100758.69;;;14.45;55.34
40788;BME280;26497;52.494;7.546;2022-11-03T02:25:43;100751.13;;;14.17;55.95
40788;BME280;26497;52.494;7.546;2022-11-03T02:28:14;100744.75;;;14.30;55.70
40788;BME280;26497;52.494;7.546;2022-11-03T02:30:47;100744.53;;;14.44;55.19
40788;BME280;26497;52.494;7.546;2022-11-03T02:33:29;100744.53;;;14.44;55.26
40788;BME280;26497;52.494;7.546;2022-11-03T02:36:05;100734.09;;;14.32;55.74
40788;BME280;26497;52.494;7.546;2022-11-03T02:38:42;100733.31;;;14.25;56.15
40788;BME280;26497;52.494;7.546;2022-11-03T02:41:13;100734.19;;;14.27;55.96
40788;BME280;26497;52.494;7.546;2022-11-03T02:43:43;100724.47;;;14.26;56.10
40788;BME280;26497;52.494;7.546;2022-11-03T02:46:12;100714.75;;;14.25;56.03
40788;BME280;26497;52.494;7.546;2022-11-03T02:48:41;100717.34;;;14.28;55.95
40788;BME280;26497;52.494;7.546;2022-11-03T02:51:08;100712.19;;;14.19;56.41
40788;BME280;26497;52.494;7.546;2022-11-03T02:53:39;100715.84;;;14.10;56.70
40788;BME280;26497;52.494;7.546;2022-11-03T02:56:15;100717.50;;;14.18;56.73
40788;BME280;26497;52.494;7.546;2022-11-03T02:58:50;100711.25;;;14.22;56.18
40788;BME280;26497;52.494;7.546;2022-11-03T03:01:24;100698.03;;;14.20;56.74
40788;BME280;26497;52.494;7.546;2022-11-03T03:03:58;100709.28;;;14.36;56.15
40788;BME280;26497;52.494;7.546;2022-11-03T03:06:27;100706.69;;;14.32;56.05
40788;BME280;26497;52.494;7.546;2022-11-03T03:08:59;100705.81;;;14.31;56.36
40788;BME280;26497;52.494;7.546;2022-11-03T03:11:29;100697.00;;;14.29;56.46
40788;BME280;26497;52.494;7.546;2022-11-03T03:14:09;100699.16;;;14.04;57.31
40788;BME280;26497;52.494;7.546;2022-11-03T03:16:46;100700.63;;;14.23;56.85
40788;BME280;26497;52.494;7.546;2022-11-03T03:19:29;100705.75;;;14.36;56.29
40788;BME280;26497;52.494;7.546;2022-11-03T03:21:58;100699.41;;;14.46;56.18
40788;BME280;26497;52.494;7.546;2022-11-03T03:24:35;100692.59;;;14.28;56.57
40788;BME280;26497;52.494;7.546;2022-11-03T03:27:10;100697.97;;;14.23;56.86
40788;BME280;26497;52.494;7.546;2022-11-03T03:29:41;100697.94;;;14.25;57.00
40788;BME280;26497;52.494;7.546;2022-11-03T03:32:14;100693.50;;;14.27;56.97
40788;BME280;26497;52.494;7.546;2022-11-03T03:34:45;100696.06;;;14.33;56.72
40788;BME280;26497;52.494;7.546;2022-11-03T03:37:15;100688.22;;;14.24;57.04
40788;BME280;26497;52.494;7.546;2022-11-03T03:39:48;100681.31;;;14.15;57.52
40788;BME280;26497;52.494;7.546;2022-11-03T03:42:19;100684.84;;;14.14;57.50
40788;BME280;26497;52.494;7.546;2022-11-03T03:44:48;100683.03;;;14.18;57.65
40788;BME280;26497;52.494;7.546;2022-11-03T03:47:20;100672.94;;;14.41;57.15
40788;BME280;26497;52.494;7.546;2022-11-03T03:49:48;100670.72;;;14.13;57.78
40788;BME280;26497;52.494;7.546;2022-11-03T03:52:15;100665.16;;;14.30;57.26
40788;BME280;26497;52.494;7.546;2022-11-03T03:54:43;100660.00;;;14.21;57.64
40788;BME280;26497;52.494;7.546;2022-11-03T03:57:13;100657.81;;;14.47;57.08
40788;BME280;26497;52.494;7.546;2022-11-03T03:59:42;100654.53;;;14.30;57.32
40788;BME280;26497;52.494;7.546;2022-11-03T04:02:11;100659.28;;;14.10;58.01
40788;BME280;26497;52.494;7.546;2022-11-03T04:04:38;100655.75;;;14.09;58.43
40788;BME280;26497;52.494;7.546;2022-11-03T04:07:05;100652.91;;;14.22;58.06
40788;BME280;26497;52.494;7.546;2022-11-03T04:09:50;100660.16;;;14.10;58.36
40788;BME280;26497;52.494;7.546;2022-11-03T04:12:17;100653.75;;;14.24;58.00
40788;BME280;26497;52.494;7.546;2022-11-03T04:15:04;100660.09;;;14.15;58.41
40788;BME280;26497;52.494;7.546;2022-11-03T04:17:49;100665.22;;;14.26;58.08
40788;BME280;26497;52.494;7.546;2022-11-03T04:20:33;100664.50;;;14.14;58.39
40788;BME280;26497;52.494;7.546;2022-11-03T04:23:18;100649.16;;;14.35;57.74
40788;BME280;26497;52.494;7.546;2022-11-03T04:25:49;100649.09;;;14.40;57.78
40788;BME280;26497;52.494;7.546;2022-11-03T04:28:16;100643.75;;;14.43;57.56
40788;BME280;26497;52.494;7.546;2022-11-03T04:30:45;100638.78;;;14.20;58.49
40788;BME280;26497;52.494;7.546;2022-11-03T04:33:14;100641.34;;;14.27;58.57
40788;BME280;26497;52.494;7.546;2022-11-03T04:35:42;100641.19;;;14.37;58.01
40788;BME280;26497;52.494;7.546;2022-11-03T04:38:21;100633.97;;;14.43;58.02
40788;BME280;26497;52.494;7.546;2022-11-03T04:40:52;100627.59;;;14.55;57.62
40788;BME280;26497;52.494;7.546;2022-11-03T04:43:22;100619.28;;;14.24;58.64
40788;BME280;26497;52.494;7.546;2022-11-03T04:45:52;100617.16;;;14.44;57.84
40788;BME280;26497;52.494;7.546;2022-11-03T04:48:21;100619.88;;;14.41;58.30
40788;BME280;26497;52.494;7.546;2022-11-03T04:50:52;100605.00;;;14.31;58.42
40788;BME280;26497;52.494;7.546;2022-11-03T04:53:21;100604.84;;;14.42;58.39
40788;BME280;26497;52.494;7.546;2022-11-03T04:55:50;100610.09;;;14.45;58.35
40788;BME280;26497;52.494;7.546;2022-11-03T04:58:20;100606.56;;;14.44;58.07
40788;BME280;26497;52.494;7.546;2022-11-03T05:00:51;100597.91;;;14.33;58.79
40788;BME280;26497;52.494;7.546;2022-11-03T05:03:22;100595.06;;;14.44;58.38
40788;BME280;26497;52.494;7.546;2022-11-03T05:05:49;100589.88;;;14.36;58.55
40788;BME280;26497;52.494;7.546;2022-11-03T05:08:18;100595.16;;;14.39;59.06
40788;BME280;26497;52.494;7.546;2022-11-03T05:10:45;100582.34;;;14.62;58.13
40788;BME280;26497;52.494;7.546;2022-11-03T05:13:17;100587.94;;;14.48;58.52
40788;BME280;26497;52.494;7.546;2022-11-03T05:15:47;100584.59;;;14.36;58.95
40788;BME280;26497;52.494;7.546;2022-11-03T05:18:18;100575.78;;;14.34;59.19
40788;BME280;26497;52.494;7.546;2022-11-03T05:20:50;100581.66;;;14.52;58.63
40788;BME280;26497;52.494;7.546;2022-11-03T05:23:18;100572.94;;;14.45;58.67
40788;BME280;26497;52.494;7.546;2022-11-03T05:25:48;100569.44;;;14.43;59.03
40788;BME280;26497;52.494;7.546;2022-11-03T05:28:23;100566.91;;;14.35;59.25
40788;BME280;26497;52.494;7.546;2022-11-03T05:30:52;100569.41;;;14.46;58.96
40788;BME280;26497;52.494;7.546;2022-11-03T05:33:26;100561.56;;;14.38;59.37
40788;BME280;26497;52.494;7.546;2022-11-03T05:35:55;100565.91;;;14.42;59.39
40788;BME280;26497;52.494;7.546;2022-11-03T05:38:28;100557.22;;;14.34;59.81
40788;BME280;26497;52.494;7.546;2022-11-03T05:40:56;100555.91;;;14.57;58.97
40788;BME280;26497;52.494;7.546;2022-11-03T05:43:25;100542.81;;;14.48;59.36
40788;BME280;26497;52.494;7.546;2022-11-03T05:45:56;100542.88;;;14.44;59.61
40788;BME280;26497;52.494;7.546;2022-11-03T05:48:30;100544.47;;;14.55;59.42
40788;BME280;26497;52.494;7.546;2022-11-03T05:50:59;100543.31;;;14.70;58.62
40788;BME280;26497;52.494;7.546;2022-11-03T05:53:30;100537.34;;;14.57;59.16
40788;BME280;26497;52.494;7.546;2022-11-03T05:56:00;100538.34;;;14.50;59.71
40788;BME280;26497;52.494;7.546;2022-11-03T05:58:33;100535.34;;;14.71;59.03
40788;BME280;26497;52.494;7.546;2022-11-03T06:01:04;100532.72;;;14.67;59.07
40788;BME280;26497;52.494;7.546;2022-11-03T06:03:35;100523.97;;;14.63;59.17
40788;BME280;26497;52.494;7.546;2022-11-03T06:06:07;100522.38;;;14.54;59.72
40788;BME280;26497;52.494;7.546;2022-11-03T06:08:37;100528.44;;;14.59;59.64
40788;BME280;26497;52.494;7.546;2022-11-03T06:11:04;100536.00;;;14.81;58.76
40788;BME280;26497;52.494;7.546;2022-11-03T06:13:34;100521.16;;;14.72;59.17
40788;BME280;26497;52.494;7.546;2022-11-03T06:16:03;100524.88;;;14.60;59.77
40788;BME280;26497;52.494;7.546;2022-11-03T06:22:17;100526.59;;;14.63;59.64
40788;BME280;26497;52.494;7.546;2022-11-03T06:24:44;100515.84;;;14.72;59.63
40788;BME280;26497;52.494;7.546;2022-11-03T06:27:13;100513.94;;;14.79;59.16
40788;BME280;26497;52.494;7.546;2022-11-03T06:29:40;100506.78;;;14.83;59.49
40788;BME280;26497;52.494;7.546;2022-11-03T06:32:12;100502.63;;;14.68;59.71
40788;BME280;26497;52.494;7.546;2022-11-03T06:34:42;100509.59;;;14.75;59.49
40788;BME280;26497;52.494;7.546;2022-11-03T06:37:20;100500.13;;;14.60;60.06
40788;BME280;26497;52.494;7.546;2022-11-03T06:39:48;100505.34;;;14.65;59.95
40788;BME280;26497;52.494;7.546;2022-11-03T06:42:20;100506.25;;;14.64;60.21
40788;BME280;26497;52.494;7.546;2022-11-03T06:44:49;100510.28;;;14.85;59.38
40788;BME280;26497;52.494;7.546;2022-11-03T06:47:22;100497.56;;;15.01;58.97
40788;BME280;26497;52.494;7.546;2022-11-03T06:49:52;100503.63;;;15.06;58.82
40788;BME280;26497;52.494;7.546;2022-11-03T06:52:27;100493.84;;;15.10;59.03
40788;BME280;26497;52.494;7.546;2022-11-03T06:55:12;100492.66;;;15.23;58.45
40788;BME280;26497;52.494;7.546;2022-11-03T06:57:45;100486.97;;;14.99;59.26
40788;BME280;26497;52.494;7.546;2022-11-03T07:00:19;100484.44;;;15.32;58.05
40788;BME280;26497;52.494;7.546;2022-11-03T07:02:57;100479.66;;;15.11;58.82
40788;BME280;26497;52.494;7.546;2022-11-03T07:05:28;100480.56;;;15.08;59.28
40788;BME280;26497;52.494;7.546;2022-11-03T07:07:58;100487.56;;;15.14;59.14
40788;BME280;26497;52.494;7.546;2022-11-03T07:10:28;100484.38;;;15.36;58.50
40788;BME280;26497;52.494;7.546;2022-11-03T07:13:00;100480.53;;;15.49;58.05
40788;BME280;26497;52.494;7.546;2022-11-03T07:15:32;100484.69;;;15.61;57.65
40788;BME280;26497;52.494;7.546;2022-11-03T07:18:00;100464.81;;;15.77;57.05
40788;BME280;26497;52.494;7.546;2022-11-03T07:20:28;100463.38;;;15.62;57.56
40788;BME280;26497;52.494;7.546;2022-11-03T07:22:59;100454.56;;;15.60;57.69
40788;BME280;26497;52.494;7.546;2022-11-03T07:25:27;100471.56;;;15.53;58.04
40788;BME280;26497;52.494;7.546;2022-11-03T07:27:55;100465.94;;;15.67;57.87
40788;BME280;26497;52.494;7.546;2022-11-03T07:30:28;100460.25;;;15.81;57.30
40788;BME280;26497;52.494;7.546;2022-11-03T07:33:01;100455.84;;;15.80;57.54
40788;BME280;26497;52.494;7.546;2022-11-03T07:35:36;100450.19;;;15.96;56.94
40788;BME280;26497;52.494;7.546;2022-11-03T07:38:13;100453.66;;;15.98;56.95
40788;BME280;26497;52.494;7.546;2022-11-03T07:40:41;100459.00;;;15.98;57.09
40788;BME280;26497;52.494;7.546;2022-11-03T07:43:14;100449.13;;;16.01;56.58
40788;BME280;26497;52.494;7.546;2022-11-03T07:45:43;100445.66;;;16.32;56.04
40788;BME280;26497;52.494;7.546;2022-11-03T07:48:22;100445.38;;;16.42;55.34
40788;BME280;26497;52.494;7.546;2022-11-03T07:50:51;100441.91;;;16.40;55.59
40788;BME280;26497;52.494;7.546;2022-11-03T07:53:32;100438.66;;;16.60;55.23
40788;BME280;26497;52.494;7.546;2022-11-03T07:56:01;100439.34;;;16.98;53.96
40788;BME280;26497;52.494;7.546;2022-11-03T07:58:40;100430.56;;;16.94;53.67
40788;BME280;26497;52.494;7.546;2022-11-03T08:01:25;100434.81;;;16.70;54.51
40788;BME280;26497;52.494;7.546;2022-11-03T08:03:56;100429.03;;;16.86;54.22
40788;BME280;26497;52.494;7.546;2022-11-03T08:06:24;100430.31;;;16.72;53.98
40788;BME280;26497;52.494;7.546;2022-11-03T08:08:53;100414.84;;;16.85;54.40
40788;BME280;26497;52.494;7.546;2022-11-03T08:11:20;100419.09;;;16.91;53.86
40788;BME280;26497;52.494;7.546;2022-11-03T08:13:49;100413.41;;;17.05;53.75
40788;BME280;26497;52.494;7.546;2022-11-03T08:16:16;100418.75;;;17.32;52.53
40788;BME280;26497;52.494;7.546;2022-11-03T08:18:43;100413.00;;;17.17;52.97
40788;BME280;26497;52.494;7.546;2022-11-03T08:21:11;100403.78;;;16.99;53.63
40788;BME280;26497;52.494;7.546;2022-11-03T08:23:39;100398.25;;;17.07;52.96
40788;BME280;26497;52.494;7.546;2022-11-03T08:26:07;100403.59;;;17.05;53.38
40788;BME280;26497;52.494;7.546;2022-11-03T08:28:34;100390.41;;;17.29;53.10
40788;BME280;26497;52.494;7.546;2022-11-03T08:31:01;100398.72;;;17.20;53.28
40788;BME280;26497;52.494;7.546;2022-11-03T08:33:30;100389.31;;;17.35;52.72
40788;BME280;26497;52.494;7.546;2022-11-03T08:35:58;100388.78;;;17.25;52.71
40788;BME280;26497;52.494;7.546;2022-11-03T08:38:25;100391.44;;;17.25;52.55
40788;BME280;26497;52.494;7.546;2022-11-03T08:40:52;100387.13;;;17.21;52.77
40788;BME280;26497;52.494;7.546;2022-11-03T08:43:21;100383.34;;;17.55;52.01
40788;BME280;26497;52.494;7.546;2022-11-03T08:45:48;100380.94;;;17.47;51.69
40788;BME280;26497;52.494;7.546;2022-11-03T08:48:18;100375.03;;;17.37;52.29
40788;BME280;26497;52.494;7.546;2022-11-03T08:50:46;100384.00;;;17.35;51.94
40788;BME280;26497;52.494;7.546;2022-11-03T08:53:13;100372.69;;;17.28;52.49
40788;BME280;26497;52.494;7.546;2022-11-03T08:55:40;100372.47;;;17.34;51.88
40788;BME280;26497;52.494;7.546;2022-11-03T08:58:07;100370.00;;;17.01;52.52
40788;BME280;26497;52.494;7.546;2022-11-03T09:00:36;100369.41;;;17.20;52.34
40788;BME280;26497;52.494;7.546;2022-11-03T09:03:03;100364.81;;;17.23;52.43
40788;BME280;26497;52.494;7.546;2022-11-03T09:05:30;100360.53;;;17.46;51.92
40788;BME280;26497;52.494;7.546;2022-11-03T09:07:57;100357.44;;;17.32;51.58
40788;BME280;26497;52.494;7.546;2022-11-03T09:10:25;100363.16;;;17.21;52.12
40788;BME280;26497;52.494;7.546;2022-11-03T09:12:53;100359.47;;;17.52;51.68
40788;BME280;26497;52.494;7.546;2022-11-03T09:15:20;100354.63;;;17.63;51.18
40788;BME280;26497;52.494;7.546;2022-11-03T09:17:49;100348.19;;;17.69;51.11
40788;BME280;26497;52.494;7.546;2022-11-03T09:20:16;100342.41;;;17.83;50.67
40788;BME280;26497;52.494;7.546;2022-11-03T09:22:43;100339.25;;;17.45;51.33
40788;BME280;26497;52.494;7.546;2022-11-03T09:25:10;100339.56;;;17.35;51.64
40788;BME280;26497;52.494;7.546;2022-11-03T09:27:37;100340.88;;;17.76;50.80
40788;BME280;26497;52.494;7.546;2022-11-03T09:30:06;100325.72;;;18.02;49.97
40788;BME280;26497;52.494;7.546;2022-11-03T09:32:33;100324.88;;;18.01;49.74
40788;BME280;26497;52.494;7.546;2022-11-03T09:35:02;100325.81;;;18.24;49.31
40788;BME280;26497;52.494;7.546;2022-11-03T09:37:29;100324.13;;;18.21;49.56
40788;BME280;26497;52.494;7.546;2022-11-03T09:39:57;100317.84;;;18.46;48.69
40788;BME280;26497;52.494;7.546;2022-11-03T09:42:25;100297.94;;;18.55;48.69
40788;BME280;26497;52.494;7.546;2022-11-03T09:44:52;100300.03;;;18.47;48.69
40788;BME280;26497;52.494;7.546;2022-11-03T09:47:24;100292.31;;;18.61;48.38
40788;BME280;26497;52.494;7.546;2022-11-03T09:49:54;100293.53;;;18.76;48.56
40788;BME280;26497;52.494;7.546;2022-11-03T09:52:24;100284.03;;;19.13;47.48
40788;BME280;26497;52.494;7.546;2022-11-03T09:54:53;100282.94;;;19.38;46.14
40788;BME280;26497;52.494;7.546;2022-11-03T09:57:21;100279.75;;;19.30;46.55
40788;BME280;26497;52.494;7.546;2022-11-03T09:59:49;100274.53;;;19.68;45.90
40788;BME280;26497;52.494;7.546;2022-11-03T10:02:24;100277.72;;;19.77;45.21
40788;BME280;26497;52.494;7.546;2022-11-03T10:04:53;100272.19;;;19.81;44.85
40788;BME280;26497;52.494;7.546;2022-11-03T10:07:24;100270.84;;;19.71;45.36
40788;BME280;26497;52.494;7.546;2022-11-03T10:09:52;100269.44;;;19.62;45.28
40788;BME280;26497;52.494;7.546;2022-11-03T10:12:20;100267.03;;;19.97;44.35
40788;BME280;26497;52.494;7.546;2022-11-03T10:14:48;100260.31;;;20.08;44.39
40788;BME280;26497;52.494;7.546;2022-11-03T10:17:19;100253.94;;;20.29;43.52
40788;BME280;26497;52.494;7.546;2022-11-03T10:19:50;100250.78;;;20.58;43.28
40788;BME280;26497;52.494;7.546;2022-11-03T10:22:18;100241.72;;;20.60;42.64
40788;BME280;26497;52.494;7.546;2022-11-03T10:24:47;100232.38;;;20.13;43.45
40788;BME280;26497;52.494;7.546;2022-11-03T10:27:22;100232.53;;;20.66;43.55
40788;BME280;26497;52.494;7.546;2022-11-03T10:30:06;100229.59;;;20.53;42.67
40788;BME280;26497;52.494;7.546;2022-11-03T10:32:34;100220.38;;;20.59;42.94
40788;BME280;26497;52.494;7.546;2022-11-03T10:35:02;100219.84;;;20.70;42.74
40788;BME280;26497;52.494;7.546;2022-11-03T10:37:49;100213.09;;;20.43;42.88
40788;BME280;26497;52.494;7.546;2022-11-03T10:40:35;100200.69;;;20.60;42.52
40788;BME280;26497;52.494;7.546;2022-11-03T10:43:02;100202.25;;;20.46;42.91
40788;BME280;26497;52.494;7.546;2022-11-03T10:45:29;100194.44;;;20.42;42.30
40788;BME280;26497;52.494;7.546;2022-11-03T10:48:00;100199.94;;;20.19;44.01
40788;BME280;26497;52.494;7.546;2022-11-03T10:50:28;100190.97;;;19.82;43.75
40788;BME280;26497;52.494;7.546;2022-11-03T10:52:55;100182.44;;;19.74;44.27
40788;BME280;26497;52.494;7.546;2022-11-03T10:55:25;100178.19;;;20.08;44.00
40788;BME280;26497;52.494;7.546;2022-11-03T10:57:53;100170.72;;;19.77;44.03
40788;BME280;26497;52.494;7.546;2022-11-03T11:00:21;100163.91;;;19.50;44.86
40788;BME280;26497;52.494;7.546;2022-11-03T11:02:49;100148.88;;;19.86;44.48
40788;BME280;26497;52.494;7.546;2022-11-03T11:05:23;100138.47;;;19.99;43.90
40788;BME280;26497;52.494;7.546;2022-11-03T11:07:51;100134.00;;;19.99;43.68
40788;BME280;26497;52.494;7.546;2022-11-03T11:10:21;100135.06;;;20.14;43.42
40788;BME280;26497;52.494;7.546;2022-11-03T11:13:24;100130.09;;;20.61;42.66
40788;BME280;26497;52.494;7.546;2022-11-03T11:15:54;100128.69;;;20.54;42.48
40788;BME280;26497;52.494;7.546;2022-11-03T11:18:59;100113.84;;;20.29;42.23
40788;BME280;26497;52.494;7.546;2022-11-03T11:24:59;100105.66;;;20.50;42.87
40788;BME280;26497;52.494;7.546;2022-11-03T11:27:56;100099.47;;;20.49;42.50
40788;BME280;26497;52.494;7.546;2022-11-03T11:31:01;100093.78;;;20.90;41.48
40788;BME280;26497;52.494;7.546;2022-11-03T11:33:48;100096.94;;;20.81;42.08
40788;BME280;26497;52.494;7.546;2022-11-03T11:36:21;100086.38;;;20.78;42.15
40788;BME280;26497;52.494;7.546;2022-11-03T11:38:59;100084.25;;;20.85;42.50
40788;BME280;26497;52.494;7.546;2022-11-03T11:42:07;100076.22;;;20.85;42.40
40788;BME280;26497;52.494;7.546;2022-11-03T11:45:02;100079.44;;;20.56;43.05
40788;BME280;26497;52.494;7.546;2022-11-03T11:47:55;100069.34;;;20.61;42.55
40788;BME280;26497;52.494;7.546;2022-11-03T11:50:27;100070.38;;;20.76;42.50
40788;BME280;26497;52.494;7.546;2022-11-03T11:53:00;100064.78;;;20.63;42.70
40788;BME280;26497;52.494;7.546;2022-11-03T11:55:39;100056.31;;;20.01;43.71
40788;BME280;26497;52.494;7.546;2022-11-03T11:58:28;100054.28;;;20.06;44.18
40788;BME280;26497;52.494;7.546;2022-11-03T12:01:00;100045.28;;;19.89;44.30
40788;BME280;26497;52.494;7.546;2022-11-03T12:03:34;100041.16;;;20.19;44.15
40788;BME280;26497;52.494;7.546;2022-11-03T12:06:02;100023.44;;;20.16;43.72
40788;BME280;26497;52.494;7.546;2022-11-03T12:08:30;100023.91;;;20.25;43.67
40788;BME280;26497;52.494;7.546;2022-11-03T12:11:00;100031.16;;;20.23;43.51
40788;BME280;26497;52.494;7.546;2022-11-03T12:13:45;100026.59;;;20.25;43.27
40788;BME280;26497;52.494;7.546;2022-11-03T12:16:36;100011.25;;;20.11;43.47
40788;BME280;26497;52.494;7.546;2022-11-03T12:19:33;100013.91;;;19.93;43.73
40788;BME280;26497;52.494;7.546;2022-11-03T12:22:01;99993.28;;;19.58;44.33
40788;BME280;26497;52.494;7.546;2022-11-03T12:24:49;100001.16;;;19.62;44.08
40788;BME280;26497;52.494;7.546;2022-11-03T12:27:40;99998.84;;;19.91;43.64
40788;BME280;26497;52.494;7.546;2022-11-03T12:30:14;99995.25;;;20.27;43.24
40788;BME280;26497;52.494;7.546;2022-11-03T12:32:41;99996.03;;;20.11;42.81
40788;BME280;26497;52.494;7.546;2022-11-03T12:35:11;99986.94;;;19.79;43.61
40788;BME280;26497;52.494;7.546;2022-11-03T12:37:39;99980.69;;;19.60;44.10
40788;BME280;26497;52.494;7.546;2022-11-03T12:40:10;99977.66;;;19.49;44.21
40788;BME280;26497;52.494;7.546;2022-11-03T12:42:37;99983.81;;;19.32;45.07
40788;BME280;26497;52.494;7.546;2022-11-03T12:45:05;99972.56;;;19.62;44.47
40788;BME280;26497;52.494;7.546;2022-11-03T12:47:33;99968.97;;;19.63;44.11
40788;BME280;26497;52.494;7.546;2022-11-03T12:50:00;99963.16;;;19.36;44.72
40788;BME280;26497;52.494;7.546;2022-11-03T12:52:28;99965.50;;;19.61;44.45
40788;BME280;26497;52.494;7.546;2022-11-03T12:54:55;99959.88;;;19.85;43.72
40788;BME280;26497;52.494;7.546;2022-11-03T12:57:22;99963.47;;;19.84;43.87
40788;BME280;26497;52.494;7.546;2022-11-03T12:59:49;99941.81;;;20.08;43.38
40788;BME280;26497;52.494;7.546;2022-11-03T13:02:17;99938.56;;;19.83;44.28
40788;BME280;26497;52.494;7.546;2022-11-03T13:04:44;99936.53;;;20.06;43.44
40788;BME280;26497;52.494;7.546;2022-11-03T13:07:11;99921.50;;;20.21;43.56
40788;BME280;26497;52.494;7.546;2022-11-03T13:09:39;99911.84;;;20.52;42.76
40788;BME280;26497;52.494;7.546;2022-11-03T13:14:56;99895.38;;;20.09;42.98
40788;BME280;26497;52.494;7.546;2022-11-03T13:17:23;99893.84;;;20.03;43.05
40788;BME280;26497;52.494;7.546;2022-11-03T13:19:50;99882.28;;;19.67;43.51
40788;BME280;26497;52.494;7.546;2022-11-03T13:22:17;99868.31;;;19.97;43.83
40788;BME280;26497;52.494;7.546;2022-11-03T13:24:46;99862.44;;;19.71;43.35